createdAt,value
2018-06-22T00:02:17.469Z,37.70
2018-06-22T00:04:47.531Z,37.80
2018-06-22T00:07:17.736Z,37.80
2018-06-22T00:09:47.863Z,38.00
2018-06-22T00:12:18.006Z,38.10
2018-06-22T00:14:48.143Z,38.20
2018-06-22T00:17:18.387Z,38.30
2018-06-22T00:19:48.513Z,38.50
2018-06-22T00:22:18.739Z,38.70
2018-06-22T00:24:48.820Z,39.40
2018-06-22T00:27:18.851Z,38.90
2018-06-22T00:29:49.031Z,39.00
2018-06-22T00:32:19.193Z,39.10
2018-06-22T00:34:49.920Z,39.30
2018-06-22T00:37:20.083Z,39.50
2018-06-22T00:39:50.075Z,39.50
2018-06-22T00:42:20.152Z,39.60
2018-06-22T00:44:50.248Z,39.80
2018-06-22T00:47:20.422Z,40.00
2018-06-22T00:49:50.555Z,40.30
2018-06-22T00:52:20.756Z,40.40
2018-06-22T00:54:50.745Z,40.70
2018-06-22T00:57:21.091Z,40.70
2018-06-22T00:59:51.311Z,40.80
2018-06-22T01:02:21.415Z,41.00
2018-06-22T01:04:51.521Z,41.20
2018-06-22T01:07:21.689Z,41.40
2018-06-22T01:09:51.724Z,41.60
2018-06-22T01:12:22.304Z,41.50
2018-06-22T01:14:53.327Z,41.70
2018-06-22T01:17:23.395Z,41.70
2018-06-22T01:19:53.519Z,42.00
2018-06-22T01:22:23.666Z,42.20
2018-06-22T01:24:53.736Z,42.50
2018-06-22T01:27:23.862Z,42.50
2018-06-22T01:29:53.904Z,42.70
2018-06-22T01:32:23.948Z,42.80
2018-06-22T01:34:54.086Z,42.80
2018-06-22T01:37:24.232Z,43.50
2018-06-22T01:39:54.423Z,43.20
2018-06-22T01:42:24.547Z,43.40
2018-06-22T01:44:54.799Z,43.40
2018-06-22T01:47:24.962Z,43.70
2018-06-22T01:49:55.192Z,44.10
2018-06-22T01:52:25.302Z,43.80
2018-06-22T01:54:55.478Z,43.90
2018-06-22T01:57:25.560Z,44.10
2018-06-22T01:59:55.760Z,44.10
2018-06-22T02:02:25.944Z,44.50
2018-06-22T02:04:56.018Z,44.60
2018-06-22T02:07:26.127Z,44.80
2018-06-22T02:09:57.378Z,44.80
2018-06-22T02:12:27.473Z,45.10
2018-06-22T02:14:57.522Z,45.30
2018-06-22T02:17:27.772Z,45.90
2018-06-22T02:19:57.867Z,45.60
2018-06-22T02:22:28.061Z,45.80
2018-06-22T02:24:58.227Z,45.90
2018-06-22T02:27:28.276Z,46.40
2018-06-22T02:29:58.378Z,46.50
2018-06-22T02:32:28.510Z,46.70
2018-06-22T02:34:58.600Z,46.70
2018-06-22T02:37:28.695Z,46.60
2018-06-22T02:39:58.857Z,47.40
2018-06-22T02:42:29.088Z,47.00
2018-06-22T02:44:59.139Z,47.00
2018-06-22T02:47:29.404Z,47.20
2018-06-22T02:49:59.462Z,47.30
2018-06-22T02:52:29.635Z,47.40
2018-06-22T02:54:59.773Z,47.50
2018-06-22T02:57:29.933Z,47.60
2018-06-22T03:00:00.016Z,47.70
2018-06-22T03:02:30.135Z,47.90
2018-06-22T03:05:00.198Z,47.90
2018-06-22T03:07:30.391Z,48.10
2018-06-22T03:10:03.462Z,48.20
2018-06-22T03:12:33.720Z,48.30
2018-06-22T03:15:04.475Z,48.40
2018-06-22T03:17:34.727Z,48.50
2018-06-22T03:20:06.397Z,48.40
2018-06-22T03:22:37.091Z,48.60
2018-06-22T03:25:07.142Z,48.50
2018-06-22T03:27:37.334Z,48.90
2018-06-22T03:30:07.405Z,49.10
2018-06-22T03:32:37.661Z,49.20
2018-06-22T03:35:07.718Z,49.50
2018-06-22T03:37:37.761Z,49.60
2018-06-22T03:40:08.903Z,49.60
2018-06-22T03:42:39.325Z,49.80
2018-06-22T03:45:09.475Z,50.00
2018-06-22T03:47:39.979Z,50.70
2018-06-22T03:50:10.093Z,50.40
2018-06-22T03:52:40.244Z,50.30
2018-06-22T03:55:10.327Z,50.30
2018-06-22T03:57:40.487Z,50.50
2018-06-22T04:00:10.667Z,50.50
2018-06-22T04:02:40.822Z,50.50
2018-06-22T04:05:10.915Z,50.50
2018-06-22T04:07:41.340Z,50.90
2018-06-22T04:10:11.407Z,50.80
2018-06-22T04:12:41.487Z,51.10
2018-06-22T04:15:11.620Z,51.30
2018-06-22T04:17:46.778Z,51.60
2018-06-22T04:20:16.977Z,51.30
2018-06-22T04:22:47.123Z,51.50
2018-06-22T04:25:19.409Z,51.30
2018-06-22T04:27:50.312Z,51.30
2018-06-22T04:30:20.389Z,51.30
2018-06-22T04:32:51.167Z,51.30
2018-06-22T04:35:21.224Z,51.40
2018-06-22T04:37:51.320Z,51.60
2018-06-22T04:40:21.423Z,51.50
2018-06-22T04:42:51.640Z,51.30
2018-06-22T04:45:21.799Z,51.00
2018-06-22T04:47:51.965Z,50.70
2018-06-22T04:50:22.621Z,50.40
2018-06-22T04:52:52.726Z,50.50
2018-06-22T04:55:22.811Z,50.80
2018-06-22T04:57:52.854Z,50.80
2018-06-22T05:00:23.054Z,50.80
2018-06-22T05:02:53.135Z,50.90
2018-06-22T05:05:23.806Z,50.70
2018-06-22T05:07:54.025Z,51.20
2018-06-22T05:10:24.103Z,51.70
2018-06-22T05:12:55.247Z,51.90
2018-06-22T05:15:25.335Z,52.30
2018-06-22T05:17:55.513Z,52.70
2018-06-22T05:20:25.524Z,53.10
2018-06-22T05:22:55.732Z,53.40
2018-06-22T05:27:56.047Z,53.20
2018-06-22T05:30:26.344Z,53.00
2018-06-22T05:32:56.449Z,52.60
2018-06-22T05:35:26.744Z,52.70
2018-06-22T05:37:56.828Z,52.90
2018-06-22T05:40:26.751Z,52.70
2018-06-22T05:42:56.904Z,52.90
2018-06-22T05:45:26.919Z,53.10
2018-06-22T05:47:56.986Z,52.90
2018-06-22T05:50:27.069Z,53.10
2018-06-22T05:52:57.679Z,53.30
2018-06-22T05:55:27.877Z,51.80
2018-06-22T05:57:57.830Z,51.60
2018-06-22T06:00:27.785Z,51.20
2018-06-22T06:02:57.954Z,51.50
2018-06-22T06:05:27.954Z,51.40
2018-06-22T06:07:58.041Z,51.40
2018-06-22T06:10:28.058Z,51.20
2018-06-22T06:12:58.053Z,51.20
2018-06-22T06:15:28.116Z,51.30
2018-06-22T06:17:58.037Z,51.50
2018-06-22T06:20:27.963Z,51.20
2018-06-22T06:22:57.936Z,51.10
2018-06-22T06:25:27.857Z,50.90
2018-06-22T06:27:57.919Z,50.60
2018-06-22T06:30:28.075Z,50.00
2018-06-22T06:32:58.109Z,50.00
2018-06-22T06:35:28.151Z,49.70
2018-06-22T06:37:58.193Z,49.70
2018-06-22T06:40:28.194Z,49.70
2018-06-22T06:42:58.093Z,49.40
2018-06-22T06:45:28.081Z,49.00
2018-06-22T06:47:58.128Z,48.90
2018-06-22T06:50:28.054Z,49.10
2018-06-22T06:52:57.966Z,48.70
2018-06-22T06:55:28.305Z,48.70
2018-06-22T06:57:58.437Z,48.70
2018-06-22T07:00:28.391Z,48.40
2018-06-22T07:02:58.393Z,47.60
2018-06-22T07:05:28.424Z,47.00
2018-06-22T07:07:58.474Z,47.00
2018-06-22T07:10:28.453Z,46.70
2018-06-22T07:12:58.484Z,46.50
2018-06-22T07:15:28.582Z,46.00
2018-06-22T07:17:58.648Z,45.60
2018-06-22T07:20:28.728Z,44.40
2018-06-22T07:22:58.983Z,44.00
2018-06-22T07:25:29.326Z,43.80
2018-06-22T07:28:02.438Z,44.20
2018-06-22T07:30:33.254Z,43.80
2018-06-22T07:33:03.420Z,44.10
2018-06-22T07:35:33.433Z,44.10
2018-06-22T07:38:03.555Z,44.60
2018-06-22T07:40:33.691Z,44.70
2018-06-22T07:43:03.779Z,44.30
2018-06-22T07:45:33.912Z,44.60
2018-06-22T07:48:04.823Z,44.20
2018-06-22T07:50:34.907Z,43.70
2018-06-22T07:53:05.735Z,44.40
2018-06-22T07:55:35.844Z,44.70
2018-06-22T07:58:06.004Z,44.60
2018-06-22T08:00:36.097Z,44.40
2018-06-22T08:03:06.466Z,45.30
2018-06-22T08:05:36.651Z,44.30
2018-06-22T08:08:06.931Z,44.30
2018-06-22T08:10:37.155Z,44.40
2018-06-22T08:13:07.219Z,43.80
2018-06-22T08:15:37.142Z,43.10
2018-06-22T08:20:36.731Z,43.40
2018-06-22T08:23:06.911Z,43.10
2018-06-22T08:25:37.620Z,42.30
2018-06-22T08:28:07.716Z,41.60
2018-06-22T08:30:37.688Z,42.20
2018-06-22T08:33:07.653Z,42.50
2018-06-22T08:35:37.576Z,42.90
2018-06-22T08:38:07.587Z,43.10
2018-06-22T08:40:37.651Z,41.50
2018-06-22T08:43:07.784Z,41.80
2018-06-22T08:45:38.017Z,42.10
2018-06-22T08:48:08.097Z,42.40
2018-06-22T08:50:38.877Z,42.20
2018-06-22T08:53:09.046Z,40.50
2018-06-22T08:55:39.151Z,40.40
2018-06-22T08:58:09.491Z,40.40
2018-06-22T09:00:39.647Z,40.30
2018-06-22T09:03:10.108Z,40.80
2018-06-22T09:05:40.200Z,41.50
2018-06-22T09:08:10.386Z,41.90
2018-06-22T09:10:40.531Z,42.50
2018-06-22T09:13:10.725Z,42.00
2018-06-22T09:15:40.967Z,42.10
2018-06-22T09:18:11.074Z,42.70
2018-06-22T09:20:41.346Z,42.90
2018-06-22T09:23:11.439Z,43.10
2018-06-22T09:25:41.469Z,43.10
2018-06-22T09:28:11.611Z,43.10
2018-06-22T09:30:41.764Z,43.20
2018-06-22T09:33:11.958Z,43.40
2018-06-22T09:35:42.119Z,43.40
2018-06-22T09:40:41.986Z,44.00
2018-06-22T09:43:12.232Z,44.80
2018-06-22T09:45:42.337Z,45.70
2018-06-22T09:48:12.712Z,48.00
2018-06-22T09:50:42.839Z,50.30
2018-06-22T09:53:13.086Z,52.40
2018-06-22T09:55:43.081Z,54.00
2018-06-22T09:58:13.345Z,54.90
2018-06-22T10:03:19.920Z,56.30
2018-06-22T10:05:50.901Z,57.30
2018-06-22T10:08:21.066Z,57.40
2018-06-22T10:10:51.134Z,57.90
2018-06-22T10:13:22.127Z,58.00
2018-06-22T10:15:55.027Z,58.00
2018-06-22T10:18:26.506Z,57.60
2018-06-22T10:20:57.428Z,58.10
2018-06-22T10:23:27.600Z,56.40
2018-06-22T10:25:58.498Z,55.30
2018-06-22T10:28:28.734Z,54.90
2018-06-22T10:30:58.758Z,54.10
2018-06-22T10:33:28.940Z,53.50
2018-06-22T10:35:59.140Z,53.20
2018-06-22T10:38:29.204Z,52.20
2018-06-22T10:40:59.516Z,52.00
2018-06-22T10:43:30.050Z,50.60
2018-06-22T10:46:00.296Z,50.20
2018-06-22T10:48:30.507Z,50.40
2018-06-22T10:51:00.626Z,50.60
2018-06-22T10:53:31.480Z,49.70
2018-06-22T10:56:01.755Z,50.10
2018-06-22T10:58:32.088Z,50.30
2018-06-22T11:01:02.295Z,48.50
2018-06-22T11:03:32.437Z,47.40
2018-06-22T11:06:02.632Z,47.50
2018-06-22T11:08:32.813Z,47.10
2018-06-22T11:11:02.941Z,47.50
2018-06-22T11:13:33.131Z,47.00
2018-06-22T11:16:04.303Z,46.40
2018-06-22T11:18:35.361Z,45.60
2018-06-22T11:21:05.680Z,44.90
2018-06-22T11:23:35.967Z,44.80
2018-06-22T11:26:06.140Z,46.10
2018-06-22T11:28:36.400Z,45.50
2018-06-22T11:31:06.615Z,46.30
2018-06-22T11:33:37.071Z,47.20
2018-06-22T11:36:07.566Z,45.80
2018-06-22T11:38:37.891Z,45.30
2018-06-22T11:41:08.359Z,45.40
2018-06-22T11:43:38.469Z,44.80
2018-06-22T11:46:08.850Z,44.50
2018-06-22T11:48:39.030Z,44.20
2018-06-22T11:51:09.459Z,44.90
2018-06-22T11:53:39.656Z,44.10
2018-06-22T11:56:09.864Z,44.20
2018-06-22T11:58:39.991Z,44.40
2018-06-22T12:01:10.726Z,45.20
2018-06-22T12:03:40.882Z,47.00
2018-06-22T12:06:11.093Z,46.80
2018-06-22T12:08:41.258Z,46.60
2018-06-22T12:11:11.598Z,45.80
2018-06-22T12:13:41.612Z,45.30
2018-06-22T12:16:12.172Z,45.40
2018-06-22T12:18:42.694Z,44.50
2018-06-22T12:21:13.331Z,43.10
2018-06-22T12:23:43.631Z,43.20
2018-06-22T12:26:13.750Z,43.50
2018-06-22T12:28:43.775Z,43.70
2018-06-22T12:31:13.918Z,43.50
2018-06-22T12:33:44.009Z,43.40
2018-06-22T12:36:14.714Z,43.40
2018-06-22T12:38:45.039Z,43.20
2018-06-22T12:41:17.355Z,43.30
2018-06-22T12:43:47.479Z,45.40
2018-06-22T12:46:17.516Z,50.70
2018-06-22T12:48:47.771Z,52.40
2018-06-22T12:51:17.957Z,53.00
2018-06-22T12:53:48.141Z,52.30
2018-06-22T12:56:18.282Z,51.50
2018-06-22T12:58:48.394Z,49.60
2018-06-22T13:01:18.542Z,49.50
2018-06-22T13:03:48.714Z,48.70
2018-06-22T13:06:27.656Z,46.70
2018-06-22T13:08:57.878Z,46.40
2018-06-22T13:11:27.977Z,45.90
2018-06-22T13:13:58.219Z,45.10
2018-06-22T13:16:28.461Z,44.90
2018-06-22T13:18:58.577Z,45.40
2018-06-22T13:21:28.651Z,45.60
2018-06-22T13:23:58.930Z,44.60
2018-06-22T13:26:29.657Z,44.60
2018-06-22T13:29:00.287Z,45.90
2018-06-22T13:31:30.974Z,44.40
2018-06-22T13:34:01.121Z,44.80
2018-06-22T13:36:31.510Z,43.30
2018-06-22T13:39:02.143Z,42.10
2018-06-22T13:41:32.746Z,42.20
2018-06-22T13:44:02.971Z,41.90
2018-06-22T13:46:33.033Z,41.40
2018-06-22T13:49:03.211Z,41.40
2018-06-22T13:51:33.291Z,41.40
2018-06-22T13:54:03.473Z,41.10
2018-06-22T13:56:34.536Z,40.30
2018-06-22T13:59:05.027Z,39.90
2018-06-22T14:01:35.574Z,39.80
2018-06-22T14:04:10.989Z,41.20
2018-06-22T14:06:46.822Z,38.80
2018-06-22T14:11:47.652Z,38.90
2018-06-22T14:14:18.156Z,41.50
2018-06-22T14:16:48.304Z,50.60
2018-06-22T14:19:18.493Z,59.10
2018-06-22T14:21:48.566Z,68.10
2018-06-22T14:24:18.663Z,76.00
2018-06-22T14:26:48.754Z,82.10
2018-06-22T14:29:18.908Z,91.70
2018-06-22T14:31:49.639Z,90.80
2018-06-22T14:34:19.790Z,79.40
2018-06-22T14:36:49.982Z,79.00
2018-06-22T14:39:20.666Z,76.10
2018-06-22T14:41:51.134Z,70.50
2018-06-22T14:44:22.069Z,63.40
2018-06-22T14:46:52.231Z,63.60
2018-06-22T14:49:22.339Z,65.80
2018-06-22T14:51:57.740Z,62.80
2018-06-22T14:54:33.162Z,71.20
2018-06-22T14:57:08.688Z,69.50
2018-06-22T14:59:44.152Z,75.70
2018-06-22T15:02:20.023Z,79.10
2018-06-22T15:04:55.921Z,83.40
2018-06-22T15:07:31.148Z,88.00
2018-06-22T15:10:01.420Z,90.60
2018-06-22T15:12:31.702Z,91.60
2018-06-22T15:15:01.897Z,93.10
2018-06-22T15:17:36.170Z,93.90
2018-06-22T15:20:07.074Z,94.40
2018-06-22T15:22:37.756Z,95.10
2018-06-22T15:25:07.938Z,94.80
2018-06-22T15:27:37.962Z,96.20
2018-06-22T15:30:08.124Z,94.90
2018-06-22T15:32:38.262Z,89.40
2018-06-22T15:35:13.552Z,75.10
2018-06-22T15:37:49.061Z,70.00
2018-06-22T15:40:24.299Z,68.80
2018-06-22T15:42:59.812Z,61.40
2018-06-22T15:45:35.368Z,67.20
2018-06-22T15:48:11.449Z,61.10
2018-06-22T15:50:46.882Z,65.50
2018-06-22T15:53:22.926Z,65.20
2018-06-22T15:55:57.390Z,68.70
2018-06-22T15:58:27.715Z,67.60
2018-06-22T16:00:58.854Z,70.70
2018-06-22T16:03:34.356Z,74.80
2018-06-22T16:06:04.594Z,76.90
2018-06-22T16:08:34.757Z,77.70
2018-06-22T16:11:04.968Z,78.50
2018-06-22T16:13:35.102Z,80.50
2018-06-22T16:16:10.895Z,82.70
2018-06-22T16:18:46.125Z,86.70
2018-06-22T16:21:21.593Z,84.50
2018-06-22T16:23:56.880Z,83.20
2018-06-22T16:29:03.687Z,85.70
2018-06-22T16:31:34.737Z,86.10
2018-06-22T16:34:04.803Z,85.10
2018-06-22T16:36:35.025Z,85.40
2018-06-22T16:39:08.995Z,82.90
2018-06-22T16:41:39.419Z,81.00
2018-06-22T16:44:10.081Z,80.10
2018-06-22T16:46:40.247Z,73.80
2018-06-22T16:49:10.799Z,69.40
2018-06-22T16:51:41.774Z,68.00
2018-06-22T16:54:12.071Z,66.20
2018-06-22T16:56:42.289Z,65.60
2018-06-22T16:59:12.459Z,60.00
2018-06-22T17:01:42.713Z,57.50
2018-06-22T17:04:15.360Z,56.50
2018-06-22T17:06:50.965Z,55.90
2018-06-22T17:09:26.431Z,55.70
2018-06-22T17:12:01.798Z,54.20
2018-06-22T17:14:37.891Z,53.20
2018-06-22T17:17:13.314Z,52.30
2018-06-22T17:19:43.657Z,52.60
2018-06-22T17:22:13.733Z,52.20
2018-06-22T17:24:43.832Z,52.10
2018-06-22T17:27:13.975Z,52.20
2018-06-22T17:29:44.143Z,51.10
2018-06-22T17:32:14.266Z,50.90
2018-06-22T17:34:44.578Z,51.00
2018-06-22T17:37:14.841Z,51.10
2018-06-22T17:39:44.965Z,50.60
2018-06-22T17:42:15.285Z,50.60
2018-06-22T17:44:45.524Z,49.20
2018-06-22T17:47:15.758Z,50.00
2018-06-22T17:49:45.972Z,49.60
2018-06-22T17:52:16.464Z,49.10
2018-06-22T17:54:46.546Z,48.90
2018-06-22T17:57:16.806Z,49.00
2018-06-22T17:59:52.009Z,49.10
2018-06-22T18:02:27.271Z,47.70
2018-06-22T18:05:02.637Z,47.40
2018-06-22T18:07:37.210Z,47.40
2018-06-22T18:10:12.414Z,47.40
2018-06-22T18:12:48.669Z,47.50
2018-06-22T18:15:19.737Z,47.70
2018-06-22T18:17:49.802Z,48.00
2018-06-22T18:20:20.002Z,48.00
2018-06-22T18:22:50.248Z,48.10
2018-06-22T18:25:20.420Z,48.30
2018-06-22T18:27:50.650Z,48.20
2018-06-22T18:30:20.726Z,48.10
2018-06-22T18:32:50.825Z,48.00
2018-06-22T18:35:20.878Z,48.20
2018-06-22T18:37:51.089Z,48.40
2018-06-22T18:40:21.252Z,48.50
2018-06-22T18:42:51.346Z,48.50
2018-06-22T18:45:21.504Z,48.90
2018-06-22T18:47:51.699Z,48.90
2018-06-22T18:50:21.936Z,48.80
2018-06-22T18:52:57.319Z,48.90
2018-06-22T18:55:32.553Z,49.20
2018-06-22T19:00:42.806Z,50.20
2018-06-22T19:03:18.320Z,49.80
2018-06-22T19:05:48.490Z,49.50
2018-06-22T19:08:18.752Z,49.60
2018-06-22T19:10:48.922Z,50.00
2018-06-22T19:13:19.181Z,50.20
2018-06-22T19:15:49.762Z,50.60
2018-06-22T19:18:19.944Z,51.10
2018-06-22T19:23:27.318Z,51.00
2018-06-22T19:25:57.467Z,51.00
2018-06-22T19:28:27.694Z,51.00
2018-06-22T19:30:58.384Z,51.10
2018-06-22T19:33:28.592Z,51.40
2018-06-22T19:35:58.782Z,51.00
2018-06-22T19:38:28.952Z,51.60
2018-06-22T19:40:59.096Z,51.70
2018-06-22T19:44:38.291Z,51.40
2018-06-22T19:47:13.522Z,52.00
2018-06-22T19:49:48.761Z,51.70
2018-06-22T19:52:24.165Z,51.70
2018-06-22T19:54:54.673Z,51.90
2018-06-22T19:57:24.771Z,52.20
2018-06-22T19:59:54.927Z,52.30
2018-06-22T20:02:25.121Z,52.20
2018-06-22T20:04:55.342Z,52.20
2018-06-22T20:07:25.557Z,52.20
2018-06-22T20:09:56.500Z,52.30
2018-06-22T20:12:26.760Z,52.50
2018-06-22T20:14:57.813Z,52.80
2018-06-22T20:17:29.310Z,52.70
2018-06-22T20:19:59.463Z,52.60
2018-06-22T20:22:29.652Z,52.90
2018-06-22T20:25:06.065Z,53.10
2018-06-22T20:27:36.395Z,53.40
2018-06-22T20:30:06.808Z,53.10
2018-06-22T20:32:36.904Z,53.10
2018-06-22T20:35:12.595Z,53.10
2018-06-22T20:37:47.911Z,53.30
2018-06-22T20:40:23.281Z,53.30
2018-06-22T20:42:57.101Z,53.40
2018-06-22T20:45:32.563Z,53.70
2018-06-22T20:48:07.925Z,53.80
2018-06-22T20:50:39.083Z,53.80
2018-06-22T20:53:09.245Z,53.90
2018-06-22T20:55:39.438Z,54.00
2018-06-22T20:58:09.665Z,54.20
2018-06-22T21:00:40.299Z,54.10
2018-06-22T21:03:10.537Z,54.10
2018-06-22T21:05:40.765Z,54.10
2018-06-22T21:08:11.713Z,54.10
2018-06-22T21:10:41.963Z,54.00
2018-06-22T21:13:12.368Z,54.10
2018-06-22T21:15:42.490Z,54.10
2018-06-22T21:18:12.661Z,54.30
2018-06-22T21:20:48.624Z,54.30
2018-06-22T21:23:18.751Z,54.40
2018-06-22T21:25:48.985Z,54.50
2018-06-22T21:28:24.250Z,54.70
2018-06-22T21:31:57.253Z,55.20
2018-06-22T21:34:33.292Z,54.70
2018-06-22T21:37:08.797Z,55.00
2018-06-22T21:42:08.748Z,55.30
2018-06-22T21:44:39.718Z,55.20
2018-06-22T21:47:09.807Z,55.20
2018-06-22T21:49:40.355Z,55.10
2018-06-22T21:52:11.737Z,55.90
2018-06-22T21:54:42.142Z,55.40
2018-06-22T21:57:12.200Z,55.50
2018-06-22T21:59:42.322Z,55.20
2018-06-22T22:02:12.764Z,55.20
2018-06-22T22:04:43.541Z,55.40
2018-06-22T22:07:13.688Z,55.40
2018-06-22T22:09:44.280Z,56.30
2018-06-22T22:12:14.521Z,55.90
2018-06-22T22:14:44.834Z,55.80
2018-06-22T22:17:14.997Z,55.90
2018-06-22T22:19:45.074Z,55.70
2018-06-22T22:22:15.232Z,55.70
2018-06-22T22:24:45.411Z,55.80
2018-06-22T22:27:15.591Z,55.80
2018-06-22T22:29:45.742Z,55.90
2018-06-22T22:32:15.972Z,55.90
2018-06-22T22:34:46.040Z,55.80
2018-06-22T22:37:16.260Z,55.80
2018-06-22T22:39:46.506Z,56.00
2018-06-22T22:42:16.636Z,56.00
2018-06-22T22:44:46.691Z,56.10
2018-06-22T22:47:16.897Z,56.10
2018-06-22T22:49:46.995Z,56.20
2018-06-22T22:52:17.247Z,55.90
2018-06-22T22:54:47.580Z,56.60
2018-06-22T22:57:17.767Z,56.10
2018-06-22T22:59:48.704Z,56.30
2018-06-22T23:02:18.849Z,56.40
2018-06-22T23:04:48.993Z,56.30
2018-06-22T23:07:19.127Z,56.30
2018-06-22T23:09:49.257Z,56.50
2018-06-22T23:12:19.492Z,56.30
2018-06-22T23:14:49.671Z,56.60
2018-06-22T23:17:19.803Z,56.60
2018-06-22T23:19:49.898Z,56.50
2018-06-22T23:22:35.730Z,56.70
2018-06-22T23:25:06.744Z,56.70
2018-06-22T23:27:37.097Z,56.80
2018-06-22T23:30:07.266Z,56.90
2018-06-22T23:32:37.432Z,56.90
2018-06-22T23:35:07.746Z,57.10
2018-06-22T23:37:38.183Z,57.30
2018-06-22T23:40:08.304Z,57.60
2018-06-22T23:42:38.406Z,57.60
2018-06-22T23:45:08.705Z,57.70
2018-06-22T23:47:38.916Z,57.90
2018-06-22T23:50:09.007Z,58.00
2018-06-22T23:52:39.054Z,58.20
2018-06-22T23:55:09.223Z,58.30
2018-06-22T23:57:39.331Z,58.40
